sensor_id;sensor_type;location;lat;lon;timestamp;P1;durP1;ratioP1;P2;durP2;ratioP2
54460;SDS011;40371;49.414;11.010;2023-04-24T00:02:20;3.37;;;2.77;;
54460;SDS011;40371;49.414;11.010;2023-04-24T00:04:47;3.77;;;2.83;;
54460;SDS011;40371;49.414;11.010;2023-04-24T00:07:13;3.70;;;2.40;;
54460;SDS011;40371;49.414;11.010;2023-04-24T00:09:41;2.37;;;2.10;;
54460;SDS011;40371;49.414;11.010;2023-04-24T00:12:08;3.27;;;2.30;;
54460;SDS011;40371;49.414;11.010;2023-04-24T00:14:33;2.17;;;1.97;;
54460;SDS011;40371;49.414;11.010;2023-04-24T00:17:00;1.83;;;1.70;;
54460;SDS011;40371;49.414;11.010;2023-04-24T00:19:27;3.97;;;1.90;;
54460;SDS011;40371;49.414;11.010;2023-04-24T00:21:53;3.53;;;2.23;;
54460;SDS011;40371;49.414;11.010;2023-04-24T00:24:19;2.97;;;2.07;;
54460;SDS011;40371;49.414;11.010;2023-04-24T00:26:45;2.90;;;2.20;;
54460;SDS011;40371;49.414;11.010;2023-04-24T00:29:10;1.60;;;1.50;;
54460;SDS011;40371;49.414;11.010;2023-04-24T00:31:36;3.77;;;2.03;;
54460;SDS011;40371;49.414;11.010;2023-04-24T00:34:02;1.97;;;1.80;;
54460;SDS011;40371;49.414;11.010;2023-04-24T00:36:28;4.00;;;1.83;;
54460;SDS011;40371;49.414;11.010;2023-04-24T00:38:55;2.00;;;1.83;;
54460;SDS011;40371;49.414;11.010;2023-04-24T00:41:22;1.80;;;1.47;;
54460;SDS011;40371;49.414;11.010;2023-04-24T00:43:49;3.03;;;2.13;;
54460;SDS011;40371;49.414;11.010;2023-04-24T00:46:16;2.67;;;1.90;;
54460;SDS011;40371;49.414;11.010;2023-04-24T00:48:42;3.03;;;1.90;;
54460;SDS011;40371;49.414;11.010;2023-04-24T00:51:08;2.30;;;2.10;;
54460;SDS011;40371;49.414;11.010;2023-04-24T00:53:34;3.13;;;1.87;;
54460;SDS011;40371;49.414;11.010;2023-04-24T00:56:00;2.37;;;2.23;;
54460;SDS011;40371;49.414;11.010;2023-04-24T00:58:26;1.90;;;1.70;;
54460;SDS011;40371;49.414;11.010;2023-04-24T01:00:52;3.93;;;1.87;;
54460;SDS011;40371;49.414;11.010;2023-04-24T01:03:22;1.97;;;1.80;;
54460;SDS011;40371;49.414;11.010;2023-04-24T01:05:51;1.80;;;1.70;;
54460;SDS011;40371;49.414;11.010;2023-04-24T01:08:19;2.33;;;1.67;;
54460;SDS011;40371;49.414;11.010;2023-04-24T01:10:45;2.17;;;1.47;;
54460;SDS011;40371;49.414;11.010;2023-04-24T01:13:12;1.73;;;1.63;;
54460;SDS011;40371;49.414;11.010;2023-04-24T01:15:38;1.90;;;1.30;;
54460;SDS011;40371;49.414;11.010;2023-04-24T01:18:04;1.90;;;1.60;;
54460;SDS011;40371;49.414;11.010;2023-04-24T01:20:29;1.40;;;1.30;;
54460;SDS011;40371;49.414;11.010;2023-04-24T01:22:56;1.50;;;1.40;;
54460;SDS011;40371;49.414;11.010;2023-04-24T01:25:22;2.00;;;1.60;;
54460;SDS011;40371;49.414;11.010;2023-04-24T01:27:50;1.43;;;1.30;;
54460;SDS011;40371;49.414;11.010;2023-04-24T01:30:16;2.10;;;1.30;;
54460;SDS011;40371;49.414;11.010;2023-04-24T01:32:42;2.83;;;1.10;;
54460;SDS011;40371;49.414;11.010;2023-04-24T01:35:11;1.30;;;1.20;;
54460;SDS011;40371;49.414;11.010;2023-04-24T01:37:36;1.40;;;1.30;;
54460;SDS011;40371;49.414;11.010;2023-04-24T01:40:03;1.80;;;1.17;;
54460;SDS011;40371;49.414;11.010;2023-04-24T01:42:30;0.93;;;0.90;;
54460;SDS011;40371;49.414;11.010;2023-04-24T01:44:56;0.83;;;0.80;;
54460;SDS011;40371;49.414;11.010;2023-04-24T01:47:22;1.27;;;0.97;;
54460;SDS011;40371;49.414;11.010;2023-04-24T01:49:49;0.83;;;0.80;;
54460;SDS011;40371;49.414;11.010;2023-04-24T01:52:15;1.13;;;0.87;;
54460;SDS011;40371;49.414;11.010;2023-04-24T01:54:42;2.60;;;0.87;;
54460;SDS011;40371;49.414;11.010;2023-04-24T01:57:08;1.87;;;1.17;;
54460;SDS011;40371;49.414;11.010;2023-04-24T01:59:34;1.47;;;1.10;;
54460;SDS011;40371;49.414;11.010;2023-04-24T02:02:01;2.33;;;1.10;;
54460;SDS011;40371;49.414;11.010;2023-04-24T02:04:27;2.17;;;1.10;;
54460;SDS011;40371;49.414;11.010;2023-04-24T02:06:53;1.43;;;1.27;;
54460;SDS011;40371;49.414;11.010;2023-04-24T02:09:19;1.00;;;1.00;;
54460;SDS011;40371;49.414;11.010;2023-04-24T02:11:44;1.23;;;1.13;;
54460;SDS011;40371;49.414;11.010;2023-04-24T02:14:10;2.33;;;1.00;;
54460;SDS011;40371;49.414;11.010;2023-04-24T02:16:38;1.43;;;1.33;;
54460;SDS011;40371;49.414;11.010;2023-04-24T02:19:04;1.27;;;0.83;;
54460;SDS011;40371;49.414;11.010;2023-04-24T02:21:30;1.07;;;0.90;;
54460;SDS011;40371;49.414;11.010;2023-04-24T02:23:58;1.23;;;1.13;;
54460;SDS011;40371;49.414;11.010;2023-04-24T02:26:24;1.37;;;1.27;;
54460;SDS011;40371;49.414;11.010;2023-04-24T02:28:51;1.20;;;1.00;;
54460;SDS011;40371;49.414;11.010;2023-04-24T02:31:19;2.10;;;1.33;;
54460;SDS011;40371;49.414;11.010;2023-04-24T02:33:46;0.97;;;0.97;;
54460;SDS011;40371;49.414;11.010;2023-04-24T02:36:12;1.27;;;1.10;;
54460;SDS011;40371;49.414;11.010;2023-04-24T02:38:38;2.07;;;1.50;;
54460;SDS011;40371;49.414;11.010;2023-04-24T02:41:04;1.47;;;1.30;;
54460;SDS011;40371;49.414;11.010;2023-04-24T02:43:31;2.00;;;1.10;;
54460;SDS011;40371;49.414;11.010;2023-04-24T02:45:58;1.40;;;1.30;;
54460;SDS011;40371;49.414;11.010;2023-04-24T02:48:23;1.60;;;1.50;;
54460;SDS011;40371;49.414;11.010;2023-04-24T02:50:50;1.20;;;1.20;;
54460;SDS011;40371;49.414;11.010;2023-04-24T02:53:16;1.20;;;1.10;;
54460;SDS011;40371;49.414;11.010;2023-04-24T02:55:41;2.00;;;1.23;;
54460;SDS011;40371;49.414;11.010;2023-04-24T02:58:07;2.20;;;1.20;;
54460;SDS011;40371;49.414;11.010;2023-04-24T03:00:33;0.90;;;0.90;;
54460;SDS011;40371;49.414;11.010;2023-04-24T03:02:59;1.50;;;1.00;;
54460;SDS011;40371;49.414;11.010;2023-04-24T03:05:24;0.83;;;0.83;;
54460;SDS011;40371;49.414;11.010;2023-04-24T03:07:50;1.77;;;1.33;;
54460;SDS011;40371;49.414;11.010;2023-04-24T03:10:17;1.23;;;1.23;;
54460;SDS011;40371;49.414;11.010;2023-04-24T03:12:43;1.30;;;1.23;;
54460;SDS011;40371;49.414;11.010;2023-04-24T03:15:09;1.30;;;1.20;;
54460;SDS011;40371;49.414;11.010;2023-04-24T03:17:36;2.27;;;0.90;;
54460;SDS011;40371;49.414;11.010;2023-04-24T03:20:02;1.30;;;1.17;;
54460;SDS011;40371;49.414;11.010;2023-04-24T03:22:30;1.30;;;1.20;;
54460;SDS011;40371;49.414;11.010;2023-04-24T03:24:57;1.43;;;1.20;;
54460;SDS011;40371;49.414;11.010;2023-04-24T03:27:24;1.73;;;1.27;;
54460;SDS011;40371;49.414;11.010;2023-04-24T03:29:54;4.70;;;1.40;;
54460;SDS011;40371;49.414;11.010;2023-04-24T03:32:23;1.70;;;1.30;;
54460;SDS011;40371;49.414;11.010;2023-04-24T03:34:49;1.40;;;1.30;;
54460;SDS011;40371;49.414;11.010;2023-04-24T03:37:15;2.23;;;1.20;;
54460;SDS011;40371;49.414;11.010;2023-04-24T03:39:47;1.20;;;1.20;;
54460;SDS011;40371;49.414;11.010;2023-04-24T03:42:14;1.40;;;1.30;;
54460;SDS011;40371;49.414;11.010;2023-04-24T03:44:49;1.93;;;1.60;;
54460;SDS011;40371;49.414;11.010;2023-04-24T03:47:15;1.50;;;1.40;;
54460;SDS011;40371;49.414;11.010;2023-04-24T03:49:41;1.23;;;1.23;;
54460;SDS011;40371;49.414;11.010;2023-04-24T03:52:09;1.90;;;1.73;;
54460;SDS011;40371;49.414;11.010;2023-04-24T03:54:35;2.00;;;1.63;;
54460;SDS011;40371;49.414;11.010;2023-04-24T03:57:01;2.00;;;1.77;;
54460;SDS011;40371;49.414;11.010;2023-04-24T03:59:29;1.63;;;1.53;;
54460;SDS011;40371;49.414;11.010;2023-04-24T04:02:09;1.87;;;1.60;;
54460;SDS011;40371;49.414;11.010;2023-04-24T04:04:36;1.87;;;1.70;;
54460;SDS011;40371;49.414;11.010;2023-04-24T04:07:01;1.93;;;1.83;;
54460;SDS011;40371;49.414;11.010;2023-04-24T04:09:28;1.93;;;1.83;;
54460;SDS011;40371;49.414;11.010;2023-04-24T04:11:54;1.93;;;1.63;;
54460;SDS011;40371;49.414;11.010;2023-04-24T04:14:20;4.70;;;2.23;;
54460;SDS011;40371;49.414;11.010;2023-04-24T04:16:47;2.17;;;1.97;;
54460;SDS011;40371;49.414;11.010;2023-04-24T04:19:13;2.53;;;1.80;;
54460;SDS011;40371;49.414;11.010;2023-04-24T04:21:39;2.30;;;2.00;;
54460;SDS011;40371;49.414;11.010;2023-04-24T04:24:13;1.73;;;1.63;;
54460;SDS011;40371;49.414;11.010;2023-04-24T04:26:43;2.00;;;1.90;;
54460;SDS011;40371;49.414;11.010;2023-04-24T04:29:14;2.50;;;2.30;;
54460;SDS011;40371;49.414;11.010;2023-04-24T04:31:42;2.77;;;2.30;;
54460;SDS011;40371;49.414;11.010;2023-04-24T04:34:11;2.37;;;2.27;;
54460;SDS011;40371;49.414;11.010;2023-04-24T04:36:38;2.03;;;1.93;;
54460;SDS011;40371;49.414;11.010;2023-04-24T04:39:18;2.17;;;1.97;;
54460;SDS011;40371;49.414;11.010;2023-04-24T04:42:03;2.10;;;1.83;;
54460;SDS011;40371;49.414;11.010;2023-04-24T04:44:36;2.40;;;2.10;;
54460;SDS011;40371;49.414;11.010;2023-04-24T04:47:02;3.30;;;2.00;;
54460;SDS011;40371;49.414;11.010;2023-04-24T04:49:32;2.17;;;1.97;;
54460;SDS011;40371;49.414;11.010;2023-04-24T04:51:58;2.30;;;2.20;;
54460;SDS011;40371;49.414;11.010;2023-04-24T04:54:25;2.53;;;2.33;;
54460;SDS011;40371;49.414;11.010;2023-04-24T04:56:50;2.90;;;2.10;;
54460;SDS011;40371;49.414;11.010;2023-04-24T04:59:16;2.87;;;2.57;;
54460;SDS011;40371;49.414;11.010;2023-04-24T05:01:42;2.67;;;2.47;;
54460;SDS011;40371;49.414;11.010;2023-04-24T05:04:10;2.60;;;2.40;;
54460;SDS011;40371;49.414;11.010;2023-04-24T05:06:36;4.23;;;2.60;;
54460;SDS011;40371;49.414;11.010;2023-04-24T05:09:03;2.83;;;2.63;;
54460;SDS011;40371;49.414;11.010;2023-04-24T05:11:38;3.20;;;2.80;;
54460;SDS011;40371;49.414;11.010;2023-04-24T05:14:04;2.63;;;2.43;;
54460;SDS011;40371;49.414;11.010;2023-04-24T05:16:37;3.50;;;2.43;;
54460;SDS011;40371;49.414;11.010;2023-04-24T05:19:04;2.40;;;2.20;;
54460;SDS011;40371;49.414;11.010;2023-04-24T05:21:35;2.57;;;2.23;;
54460;SDS011;40371;49.414;11.010;2023-04-24T05:24:01;3.87;;;2.80;;
54460;SDS011;40371;49.414;11.010;2023-04-24T05:26:47;3.10;;;2.90;;
54460;SDS011;40371;49.414;11.010;2023-04-24T05:29:14;3.83;;;2.37;;
54460;SDS011;40371;49.414;11.010;2023-04-24T05:31:41;2.37;;;2.13;;
54460;SDS011;40371;49.414;11.010;2023-04-24T05:34:07;3.47;;;2.57;;
54460;SDS011;40371;49.414;11.010;2023-04-24T05:36:33;2.93;;;2.40;;
54460;SDS011;40371;49.414;11.010;2023-04-24T05:38:59;2.47;;;2.30;;
54460;SDS011;40371;49.414;11.010;2023-04-24T05:41:24;2.43;;;2.33;;
54460;SDS011;40371;49.414;11.010;2023-04-24T05:43:50;2.27;;;2.17;;
54460;SDS011;40371;49.414;11.010;2023-04-24T05:46:16;4.43;;;2.23;;
54460;SDS011;40371;49.414;11.010;2023-04-24T05:48:42;3.97;;;2.47;;
54460;SDS011;40371;49.414;11.010;2023-04-24T05:51:08;2.70;;;2.50;;
54460;SDS011;40371;49.414;11.010;2023-04-24T05:53:34;1.93;;;1.73;;
54460;SDS011;40371;49.414;11.010;2023-04-24T05:56:00;2.93;;;1.93;;
54460;SDS011;40371;49.414;11.010;2023-04-24T05:58:26;2.30;;;1.73;;
54460;SDS011;40371;49.414;11.010;2023-04-24T06:00:51;1.50;;;1.40;;
54460;SDS011;40371;49.414;11.010;2023-04-24T06:03:18;2.53;;;2.20;;
54460;SDS011;40371;49.414;11.010;2023-04-24T06:05:43;1.80;;;1.70;;
54460;SDS011;40371;49.414;11.010;2023-04-24T06:08:09;1.77;;;1.67;;
54460;SDS011;40371;49.414;11.010;2023-04-24T06:10:37;1.70;;;1.30;;
54460;SDS011;40371;49.414;11.010;2023-04-24T06:13:05;3.13;;;1.67;;
54460;SDS011;40371;49.414;11.010;2023-04-24T06:15:33;3.53;;;2.13;;
54460;SDS011;40371;49.414;11.010;2023-04-24T06:18:07;1.83;;;1.73;;
54460;SDS011;40371;49.414;11.010;2023-04-24T06:20:35;4.53;;;2.00;;
54460;SDS011;40371;49.414;11.010;2023-04-24T06:23:01;3.53;;;1.60;;
54460;SDS011;40371;49.414;11.010;2023-04-24T06:25:26;1.87;;;1.60;;
54460;SDS011;40371;49.414;11.010;2023-04-24T06:27:52;3.70;;;1.50;;
54460;SDS011;40371;49.414;11.010;2023-04-24T06:30:18;1.60;;;1.20;;
54460;SDS011;40371;49.414;11.010;2023-04-24T06:32:44;2.07;;;1.30;;
54460;SDS011;40371;49.414;11.010;2023-04-24T06:35:10;1.00;;;1.00;;
54460;SDS011;40371;49.414;11.010;2023-04-24T06:37:37;1.37;;;1.10;;
54460;SDS011;40371;49.414;11.010;2023-04-24T06:40:06;1.40;;;0.90;;
54460;SDS011;40371;49.414;11.010;2023-04-24T06:42:33;1.37;;;0.80;;
54460;SDS011;40371;49.414;11.010;2023-04-24T06:45:01;4.63;;;1.10;;
54460;SDS011;40371;49.414;11.010;2023-04-24T06:47:26;0.70;;;0.70;;
54460;SDS011;40371;49.414;11.010;2023-04-24T06:49:52;3.17;;;1.00;;
54460;SDS011;40371;49.414;11.010;2023-04-24T06:52:18;1.70;;;0.80;;
54460;SDS011;40371;49.414;11.010;2023-04-24T06:54:44;1.07;;;0.97;;
54460;SDS011;40371;49.414;11.010;2023-04-24T06:57:10;1.00;;;0.70;;
54460;SDS011;40371;49.414;11.010;2023-04-24T06:59:36;0.80;;;0.70;;
54460;SDS011;40371;49.414;11.010;2023-04-24T07:02:01;0.70;;;0.70;;
54460;SDS011;40371;49.414;11.010;2023-04-24T07:04:28;1.03;;;0.97;;
54460;SDS011;40371;49.414;11.010;2023-04-24T07:06:53;1.60;;;1.20;;
54460;SDS011;40371;49.414;11.010;2023-04-24T07:09:21;0.83;;;0.83;;
54460;SDS011;40371;49.414;11.010;2023-04-24T07:11:48;1.17;;;1.07;;
54460;SDS011;40371;49.414;11.010;2023-04-24T07:14:15;1.60;;;0.90;;
54460;SDS011;40371;49.414;11.010;2023-04-24T07:16:41;0.63;;;0.60;;
54460;SDS011;40371;49.414;11.010;2023-04-24T07:19:07;2.97;;;1.07;;
54460;SDS011;40371;49.414;11.010;2023-04-24T07:21:33;3.80;;;1.10;;
54460;SDS011;40371;49.414;11.010;2023-04-24T07:23:58;1.00;;;1.00;;
54460;SDS011;40371;49.414;11.010;2023-04-24T07:26:25;1.20;;;1.10;;
54460;SDS011;40371;49.414;11.010;2023-04-24T07:28:51;3.07;;;0.93;;
54460;SDS011;40371;49.414;11.010;2023-04-24T07:31:16;1.40;;;1.17;;
54460;SDS011;40371;49.414;11.010;2023-04-24T07:33:42;0.80;;;0.80;;
54460;SDS011;40371;49.414;11.010;2023-04-24T07:36:07;1.00;;;1.00;;
54460;SDS011;40371;49.414;11.010;2023-04-24T07:38:33;1.40;;;1.30;;
54460;SDS011;40371;49.414;11.010;2023-04-24T07:40:59;1.93;;;1.20;;
54460;SDS011;40371;49.414;11.010;2023-04-24T07:43:24;1.13;;;1.13;;
54460;SDS011;40371;49.414;11.010;2023-04-24T07:45:50;4.37;;;1.20;;
54460;SDS011;40371;49.414;11.010;2023-04-24T07:48:16;1.03;;;1.03;;
54460;SDS011;40371;49.414;11.010;2023-04-24T07:50:43;1.00;;;1.00;;
54460;SDS011;40371;49.414;11.010;2023-04-24T07:53:09;1.80;;;1.63;;
54460;SDS011;40371;49.414;11.010;2023-04-24T07:55:35;2.57;;;1.33;;
54460;SDS011;40371;49.414;11.010;2023-04-24T07:58:01;1.50;;;1.40;;
54460;SDS011;40371;49.414;11.010;2023-04-24T08:00:26;2.10;;;1.90;;
54460;SDS011;40371;49.414;11.010;2023-04-24T08:02:52;1.77;;;1.67;;
54460;SDS011;40371;49.414;11.010;2023-04-24T08:05:17;1.33;;;1.33;;
54460;SDS011;40371;49.414;11.010;2023-04-24T08:07:45;1.93;;;1.60;;
54460;SDS011;40371;49.414;11.010;2023-04-24T08:10:13;1.60;;;1.50;;
54460;SDS011;40371;49.414;11.010;2023-04-24T08:12:40;2.00;;;1.60;;
54460;SDS011;40371;49.414;11.010;2023-04-24T08:15:05;3.33;;;2.30;;
54460;SDS011;40371;49.414;11.010;2023-04-24T08:17:32;2.30;;;2.10;;
54460;SDS011;40371;49.414;11.010;2023-04-24T08:19:58;1.73;;;1.60;;
54460;SDS011;40371;49.414;11.010;2023-04-24T08:22:26;2.27;;;1.60;;
54460;SDS011;40371;49.414;11.010;2023-04-24T08:24:53;2.93;;;1.70;;
54460;SDS011;40371;49.414;11.010;2023-04-24T08:27:19;2.10;;;1.90;;
54460;SDS011;40371;49.414;11.010;2023-04-24T08:29:44;4.07;;;2.03;;
54460;SDS011;40371;49.414;11.010;2023-04-24T08:32:10;1.87;;;1.50;;
54460;SDS011;40371;49.414;11.010;2023-04-24T08:34:35;1.87;;;1.57;;
54460;SDS011;40371;49.414;11.010;2023-04-24T08:37:02;2.80;;;1.80;;
54460;SDS011;40371;49.414;11.010;2023-04-24T08:39:28;1.87;;;1.77;;
54460;SDS011;40371;49.414;11.010;2023-04-24T08:41:54;1.90;;;1.80;;
54460;SDS011;40371;49.414;11.010;2023-04-24T08:44:21;1.97;;;1.83;;
54460;SDS011;40371;49.414;11.010;2023-04-24T08:46:47;2.30;;;2.10;;
54460;SDS011;40371;49.414;11.010;2023-04-24T08:49:13;3.47;;;1.90;;
54460;SDS011;40371;49.414;11.010;2023-04-24T08:51:42;1.30;;;1.30;;
54460;SDS011;40371;49.414;11.010;2023-04-24T08:54:09;3.43;;;2.03;;
54460;SDS011;40371;49.414;11.010;2023-04-24T08:56:36;2.23;;;1.43;;
54460;SDS011;40371;49.414;11.010;2023-04-24T08:59:05;1.80;;;1.43;;
54460;SDS011;40371;49.414;11.010;2023-04-24T09:01:32;3.03;;;1.77;;
54460;SDS011;40371;49.414;11.010;2023-04-24T09:04:03;2.30;;;1.60;;
54460;SDS011;40371;49.414;11.010;2023-04-24T09:06:29;2.20;;;1.93;;
54460;SDS011;40371;49.414;11.010;2023-04-24T09:08:57;1.80;;;1.70;;
54460;SDS011;40371;49.414;11.010;2023-04-24T09:11:26;4.00;;;2.47;;
54460;SDS011;40371;49.414;11.010;2023-04-24T09:13:53;4.83;;;3.47;;
54460;SDS011;40371;49.414;11.010;2023-04-24T09:16:19;2.37;;;1.90;;
54460;SDS011;40371;49.414;11.010;2023-04-24T09:18:45;1.87;;;1.77;;
54460;SDS011;40371;49.414;11.010;2023-04-24T09:21:11;1.80;;;1.60;;
54460;SDS011;40371;49.414;11.010;2023-04-24T09:23:37;1.47;;;1.37;;
54460;SDS011;40371;49.414;11.010;2023-04-24T09:26:03;1.87;;;1.70;;
54460;SDS011;40371;49.414;11.010;2023-04-24T09:31:11;2.00;;;1.77;;
54460;SDS011;40371;49.414;11.010;2023-04-24T09:33:56;3.20;;;1.43;;
54460;SDS011;40371;49.414;11.010;2023-04-24T09:36:27;1.63;;;1.53;;
54460;SDS011;40371;49.414;11.010;2023-04-24T09:38:57;3.67;;;1.80;;
54460;SDS011;40371;49.414;11.010;2023-04-24T09:41:23;1.70;;;1.60;;
54460;SDS011;40371;49.414;11.010;2023-04-24T09:43:49;2.00;;;1.37;;
54460;SDS011;40371;49.414;11.010;2023-04-24T09:46:15;2.33;;;1.53;;
54460;SDS011;40371;49.414;11.010;2023-04-24T09:48:43;1.53;;;1.43;;
54460;SDS011;40371;49.414;11.010;2023-04-24T09:51:09;2.10;;;1.20;;
54460;SDS011;40371;49.414;11.010;2023-04-24T09:53:38;1.10;;;1.10;;
54460;SDS011;40371;49.414;11.010;2023-04-24T09:56:11;1.90;;;1.33;;
54460;SDS011;40371;49.414;11.010;2023-04-24T09:58:40;1.40;;;1.30;;
54460;SDS011;40371;49.414;11.010;2023-04-24T10:01:05;0.90;;;0.90;;
54460;SDS011;40371;49.414;11.010;2023-04-24T10:03:31;1.40;;;1.20;;
54460;SDS011;40371;49.414;11.010;2023-04-24T10:05:58;1.47;;;1.37;;
54460;SDS011;40371;49.414;11.010;2023-04-24T10:08:25;1.00;;;1.00;;
54460;SDS011;40371;49.414;11.010;2023-04-24T10:10:51;3.03;;;1.10;;
54460;SDS011;40371;49.414;11.010;2023-04-24T10:13:17;1.30;;;1.20;;
54460;SDS011;40371;49.414;11.010;2023-04-24T10:15:43;1.00;;;1.00;;
54460;SDS011;40371;49.414;11.010;2023-04-24T10:18:10;1.70;;;1.07;;
54460;SDS011;40371;49.414;11.010;2023-04-24T10:20:37;1.27;;;1.17;;
54460;SDS011;40371;49.414;11.010;2023-04-24T10:23:04;2.13;;;0.87;;
54460;SDS011;40371;49.414;11.010;2023-04-24T10:25:32;1.07;;;0.97;;
54460;SDS011;40371;49.414;11.010;2023-04-24T10:27:59;2.67;;;1.30;;
54460;SDS011;40371;49.414;11.010;2023-04-24T10:30:27;0.70;;;0.70;;
54460;SDS011;40371;49.414;11.010;2023-04-24T10:33:00;1.23;;;0.85;;
54460;SDS011;40371;49.414;11.010;2023-04-24T10:35:26;0.80;;;0.80;;
54460;SDS011;40371;49.414;11.010;2023-04-24T10:37:56;0.80;;;0.80;;
54460;SDS011;40371;49.414;11.010;2023-04-24T10:40:29;1.63;;;0.68;;
54460;SDS011;40371;49.414;11.010;2023-04-24T10:42:57;0.68;;;0.60;;
54460;SDS011;40371;49.414;11.010;2023-04-24T10:45:23;0.70;;;0.70;;
54460;SDS011;40371;49.414;11.010;2023-04-24T10:50:30;1.42;;;0.70;;
54460;SDS011;40371;49.414;11.010;2023-04-24T10:53:12;0.75;;;0.70;;
54460;SDS011;40371;49.414;11.010;2023-04-24T10:55:44;0.60;;;0.60;;
54460;SDS011;40371;49.414;11.010;2023-04-24T10:58:15;1.85;;;0.80;;
54460;SDS011;40371;49.414;11.010;2023-04-24T11:00:42;0.60;;;0.60;;
54460;SDS011;40371;49.414;11.010;2023-04-24T11:03:25;0.73;;;0.73;;
54460;SDS011;40371;49.414;11.010;2023-04-24T11:05:56;1.10;;;0.80;;
54460;SDS011;40371;49.414;11.010;2023-04-24T11:08:36;0.47;;;0.47;;
54460;SDS011;40371;49.414;11.010;2023-04-24T11:16:21;1.10;;;1.00;;
54460;SDS011;40371;49.414;11.010;2023-04-24T11:19:07;0.90;;;0.60;;
54460;SDS011;40371;49.414;11.010;2023-04-24T11:21:44;2.10;;;0.80;;
54460;SDS011;40371;49.414;11.010;2023-04-24T11:25:12;5.17;;;3.17;;
54460;SDS011;40371;49.414;11.010;2023-04-24T11:27:18;1.80;;;1.47;;
54460;SDS011;40371;49.414;11.010;2023-04-24T11:32:28;1.60;;;1.50;;
54460;SDS011;40371;49.414;11.010;2023-04-24T11:35:05;1.53;;;1.43;;
54460;SDS011;40371;49.414;11.010;2023-04-24T11:37:46;2.20;;;1.30;;
54460;SDS011;40371;49.414;11.010;2023-04-24T11:40:17;2.53;;;1.37;;
54460;SDS011;40371;49.414;11.010;2023-04-24T11:42:48;1.60;;;1.60;;
54460;SDS011;40371;49.414;11.010;2023-04-24T11:45:16;1.30;;;1.20;;
54460;SDS011;40371;49.414;11.010;2023-04-24T11:47:43;1.30;;;1.20;;
54460;SDS011;40371;49.414;11.010;2023-04-24T11:50:17;2.60;;;1.40;;
54460;SDS011;40371;49.414;11.010;2023-04-24T11:52:45;1.23;;;1.23;;
54460;SDS011;40371;49.414;11.010;2023-04-24T11:57:47;1.80;;;1.20;;
54460;SDS011;40371;49.414;11.010;2023-04-24T12:00:18;0.90;;;0.90;;
54460;SDS011;40371;49.414;11.010;2023-04-24T12:02:45;1.20;;;1.00;;
54460;SDS011;40371;49.414;11.010;2023-04-24T12:05:19;1.57;;;1.47;;
54460;SDS011;40371;49.414;11.010;2023-04-24T12:07:51;1.13;;;1.13;;
54460;SDS011;40371;49.414;11.010;2023-04-24T12:10:24;2.20;;;1.40;;
54460;SDS011;40371;49.414;11.010;2023-04-24T12:12:51;3.17;;;1.40;;
54460;SDS011;40371;49.414;11.010;2023-04-24T12:15:18;1.73;;;1.10;;
54460;SDS011;40371;49.414;11.010;2023-04-24T12:17:45;2.17;;;1.30;;
54460;SDS011;40371;49.414;11.010;2023-04-24T12:20:11;1.90;;;1.10;;
54460;SDS011;40371;49.414;11.010;2023-04-24T12:22:47;1.87;;;1.23;;
54460;SDS011;40371;49.414;11.010;2023-04-24T12:25:31;1.70;;;1.60;;
54460;SDS011;40371;49.414;11.010;2023-04-24T12:30:29;1.30;;;1.30;;
54460;SDS011;40371;49.414;11.010;2023-04-24T12:32:57;0.97;;;0.90;;
54460;SDS011;40371;49.414;11.010;2023-04-24T12:35:24;0.87;;;0.87;;
54460;SDS011;40371;49.414;11.010;2023-04-24T12:37:52;1.47;;;0.80;;
54460;SDS011;40371;49.414;11.010;2023-04-24T12:40:18;0.90;;;0.90;;
54460;SDS011;40371;49.414;11.010;2023-04-24T12:42:49;1.10;;;1.00;;
54460;SDS011;40371;49.414;11.010;2023-04-24T12:45:16;0.87;;;0.87;;
54460;SDS011;40371;49.414;11.010;2023-04-24T12:47:43;0.97;;;0.97;;
54460;SDS011;40371;49.414;11.010;2023-04-24T12:50:11;2.30;;;1.07;;
54460;SDS011;40371;49.414;11.010;2023-04-24T12:52:38;1.47;;;1.20;;
54460;SDS011;40371;49.414;11.010;2023-04-24T12:55:04;1.23;;;1.17;;
54460;SDS011;40371;49.414;11.010;2023-04-24T12:57:33;5.13;;;1.23;;
54460;SDS011;40371;49.414;11.010;2023-04-24T13:00:00;1.27;;;1.17;;
54460;SDS011;40371;49.414;11.010;2023-04-24T13:02:27;2.10;;;1.30;;
54460;SDS011;40371;49.414;11.010;2023-04-24T13:04:55;2.20;;;1.30;;
54460;SDS011;40371;49.414;11.010;2023-04-24T13:07:21;3.97;;;1.40;;
54460;SDS011;40371;49.414;11.010;2023-04-24T13:09:49;1.20;;;1.20;;
54460;SDS011;40371;49.414;11.010;2023-04-24T13:12:16;2.60;;;1.30;;
54460;SDS011;40371;49.414;11.010;2023-04-24T13:14:42;1.40;;;1.30;;
54460;SDS011;40371;49.414;11.010;2023-04-24T13:17:07;1.03;;;1.00;;
54460;SDS011;40371;49.414;11.010;2023-04-24T13:19:37;1.33;;;1.23;;
54460;SDS011;40371;49.414;11.010;2023-04-24T13:22:04;1.00;;;1.00;;
54460;SDS011;40371;49.414;11.010;2023-04-24T13:24:31;1.67;;;1.00;;
54460;SDS011;40371;49.414;11.010;2023-04-24T13:26:58;1.47;;;1.23;;
54460;SDS011;40371;49.414;11.010;2023-04-24T13:29:25;1.57;;;1.00;;
54460;SDS011;40371;49.414;11.010;2023-04-24T13:31:52;2.77;;;1.40;;
54460;SDS011;40371;49.414;11.010;2023-04-24T13:34:20;1.33;;;1.33;;
54460;SDS011;40371;49.414;11.010;2023-04-24T13:36:46;1.20;;;1.10;;
54460;SDS011;40371;49.414;11.010;2023-04-24T13:39:13;1.57;;;1.47;;
54460;SDS011;40371;49.414;11.010;2023-04-24T13:41:38;1.50;;;1.40;;
54460;SDS011;40371;49.414;11.010;2023-04-24T13:44:05;1.60;;;1.50;;
54460;SDS011;40371;49.414;11.010;2023-04-24T13:46:31;1.87;;;1.77;;
54460;SDS011;40371;49.414;11.010;2023-04-24T13:48:57;2.03;;;1.60;;
54460;SDS011;40371;49.414;11.010;2023-04-24T13:51:24;1.70;;;1.60;;
54460;SDS011;40371;49.414;11.010;2023-04-24T13:53:52;3.70;;;1.97;;
54460;SDS011;40371;49.414;11.010;2023-04-24T13:56:18;2.00;;;1.90;;
54460;SDS011;40371;49.414;11.010;2023-04-24T13:58:44;1.83;;;1.73;;
54460;SDS011;40371;49.414;11.010;2023-04-24T14:01:10;3.07;;;1.90;;
54460;SDS011;40371;49.414;11.010;2023-04-24T14:03:37;1.73;;;1.63;;
54460;SDS011;40371;49.414;11.010;2023-04-24T14:06:03;2.10;;;2.00;;
54460;SDS011;40371;49.414;11.010;2023-04-24T14:08:29;2.17;;;1.90;;
54460;SDS011;40371;49.414;11.010;2023-04-24T14:10:54;3.17;;;2.10;;
54460;SDS011;40371;49.414;11.010;2023-04-24T14:13:20;2.03;;;1.80;;
54460;SDS011;40371;49.414;11.010;2023-04-24T14:15:46;1.80;;;1.70;;
54460;SDS011;40371;49.414;11.010;2023-04-24T14:18:11;2.60;;;1.90;;
54460;SDS011;40371;49.414;11.010;2023-04-24T14:20:37;2.87;;;1.67;;
54460;SDS011;40371;49.414;11.010;2023-04-24T14:23:06;1.97;;;1.60;;
54460;SDS011;40371;49.414;11.010;2023-04-24T14:25:33;1.70;;;1.60;;
54460;SDS011;40371;49.414;11.010;2023-04-24T14:27:59;1.87;;;1.77;;
54460;SDS011;40371;49.414;11.010;2023-04-24T14:30:24;1.83;;;1.73;;
54460;SDS011;40371;49.414;11.010;2023-04-24T14:32:50;1.50;;;1.43;;
54460;SDS011;40371;49.414;11.010;2023-04-24T14:35:16;2.30;;;2.10;;
54460;SDS011;40371;49.414;11.010;2023-04-24T14:37:41;1.60;;;1.50;;
54460;SDS011;40371;49.414;11.010;2023-04-24T14:40:10;2.10;;;1.90;;
54460;SDS011;40371;49.414;11.010;2023-04-24T14:42:37;2.17;;;1.53;;
54460;SDS011;40371;49.414;11.010;2023-04-24T14:45:03;1.53;;;1.43;;
54460;SDS011;40371;49.414;11.010;2023-04-24T14:47:29;6.10;;;1.30;;
54460;SDS011;40371;49.414;11.010;2023-04-24T14:49:55;1.00;;;1.00;;
54460;SDS011;40371;49.414;11.010;2023-04-24T14:52:21;0.50;;;0.50;;
54460;SDS011;40371;49.414;11.010;2023-04-24T14:54:47;2.00;;;0.70;;